Time;durP1;ratioP1;P1;durP2;ratioP2;P2;SDS_P1;SDS_P2;PMS_P1;PMS_P2;Temp;Humidity;BMP_temperature;BMP_pressure;BME280_temperature;BME280_humidity;BME280_pressure;Samples;Min_cycle;Max_cycle;Signal;HPM_P1;HPM_P2
2022/12/06 00:01:24;;;;;;;;;;;;;;;3.50;97.56;99599.13;10224403;23;19955;-74
2022/12/06 00:05:25;;;;;;;;;;;;;;;3.50;97.73;99588.88;10198860;23;19929;-73
2022/12/06 00:09:28;;;;;;;;;;;;;;;3.48;97.70;99593.97;10223990;23;19924;-73
2022/12/06 00:13:29;;;;;;;;;;;;;;;3.49;97.71;99594.81;10224408;23;20414;-73
2022/12/06 00:17:30;;;;;;;;;;;;;;;3.50;97.72;99597.44;10223834;23;19959;-73
2022/12/06 00:21:33;;;;;;;;;;;;;;;3.52;98.30;99597.47;10223570;23;19941;-73
2022/12/06 00:25:34;;;;;;;;;;;;;;;3.57;98.09;99595.88;10223956;23;19982;-73
2022/12/06 00:29:36;;;;;;;;;;;;;;;3.59;98.08;99590.00;10222815;23;19951;-73
2022/12/06 00:33:37;;;;;;;;;;;;;;;3.59;98.16;99590.00;10225399;23;20370;-73
2022/12/06 00:37:39;;;;;;;;;;;;;;;3.58;98.16;99588.22;10215949;23;19924;-73
2022/12/06 00:41:40;;;;;;;;;;;;;;;3.57;98.19;99595.88;10219626;23;19952;-73
2022/12/06 00:45:42;;;;;;;;;;;;;;;3.51;97.58;99582.91;10193460;23;20338;-73
2022/12/06 00:49:44;;;;;;;;;;;;;;;3.50;98.01;99584.59;10221552;23;19946;-73
2022/12/06 00:53:46;;;;;;;;;;;;;;;3.47;97.79;99571.69;10222497;23;19947;-73
2022/12/06 00:57:47;;;;;;;;;;;;;;;3.50;97.79;99569.19;10196765;23;20001;-73
2022/12/06 01:01:49;;;;;;;;;;;;;;;3.45;97.61;99570.78;10223230;23;20367;-74
2022/12/06 01:05:50;;;;;;;;;;;;;;;3.44;97.92;99575.88;10221173;23;20003;-74
2022/12/06 01:09:52;;;;;;;;;;;;;;;3.40;97.77;99574.91;10224553;23;19923;-73
2022/12/06 01:13:54;;;;;;;;;;;;;;;3.33;97.26;99575.56;10221816;23;19963;-73
2022/12/06 01:17:55;;;;;;;;;;;;;;;3.34;97.61;99572.19;10220988;23;19928;-74
2022/12/06 01:21:56;;;;;;;;;;;;;;;3.30;97.65;99567.81;10223506;23;19924;-74
2022/12/06 01:25:58;;;;;;;;;;;;;;;3.28;97.44;99572.88;10221090;23;20450;-74
2022/12/06 01:29:59;;;;;;;;;;;;;;;3.26;97.31;99566.84;10221927;23;19956;-73
2022/12/06 01:34:01;;;;;;;;;;;;;;;3.22;97.26;99569.28;10221286;23;19979;-74
2022/12/06 01:38:03;;;;;;;;;;;;;;;3.21;97.47;99578.66;10196837;23;19967;-73
2022/12/06 01:42:08;;;;;;;;;;;;;;;3.20;97.61;99573.50;10197608;23;19924;-74
2022/12/06 01:46:28;;;;;;;;;;;;;;;3.20;97.55;99569.22;10171718;23;19955;-74
2022/12/06 01:50:31;;;;;;;;;;;;;;;3.19;97.75;99572.63;10196280;23;19924;-74
2022/12/06 01:54:33;;;;;;;;;;;;;;;3.20;97.94;99574.34;10171840;23;19987;-73
2022/12/06 01:58:38;;;;;;;;;;;;;;;3.19;97.79;99566.63;10196182;23;19924;-73
2022/12/06 02:02:39;;;;;;;;;;;;;;;3.16;97.85;99567.41;10220084;23;19956;-73
2022/12/06 02:06:42;;;;;;;;;;;;;;;3.14;97.93;99560.50;10171644;23;19979;-73
2022/12/06 02:10:43;;;;;;;;;;;;;;;3.11;98.02;99569.00;10196722;23;19924;-73
2022/12/06 02:14:46;;;;;;;;;;;;;;;3.11;98.01;99569.00;10171567;23;20752;-73
2022/12/06 02:18:57;;;;;;;;;;;;;;;3.18;98.30;99564.88;10221235;23;19947;-74
2022/12/06 02:23:17;;;;;;;;;;;;;;;3.17;98.45;99560.59;10195960;23;19959;-74
2022/12/06 02:27:33;;;;;;;;;;;;;;;3.16;98.30;99567.41;10225536;23;19948;-73
2022/12/06 02:31:34;;;;;;;;;;;;;;;3.15;98.69;99565.69;10200126;23;19924;-74
2022/12/06 02:35:41;;;;;;;;;;;;;;;3.15;97.89;99581.06;10199054;23;19989;-73
2022/12/06 02:39:48;;;;;;;;;;;;;;;3.16;98.16;99572.53;10200841;23;19924;-74
2022/12/06 02:43:53;;;;;;;;;;;;;;;3.15;98.21;99569.94;10175741;23;19942;-74
2022/12/06 02:47:56;;;;;;;;;;;;;;;3.08;98.17;99573.16;10198105;23;19928;-73
2022/12/06 02:51:58;;;;;;;;;;;;;;;3.11;98.18;99563.84;10200818;23;19966;-73
2022/12/06 02:55:59;;;;;;;;;;;;;;;3.10;98.10;99564.69;10199236;23;20006;-73
2022/12/06 03:00:00;;;;;;;;;;;;;;;3.10;98.05;99563.81;10175313;23;20304;-74
2022/12/06 03:04:10;;;;;;;;;;;;;;;3.09;98.15;99557.81;10230436;23;19967;-74
2022/12/06 03:08:17;;;;;;;;;;;;;;;3.08;98.16;99557.78;10203448;23;19924;-74
2022/12/06 03:12:28;;;;;;;;;;;;;;;3.10;98.17;99561.25;10205202;23;19952;-74
2022/12/06 03:16:33;;;;;;;;;;;;;;;3.09;97.97;99559.50;10230053;23;20544;-73
2022/12/06 03:20:41;;;;;;;;;;;;;;;3.07;97.57;99564.59;10230145;23;20621;-73
2022/12/06 03:24:43;;;;;;;;;;;;;;;3.06;97.62;99555.16;10179951;23;19935;-74
2022/12/06 03:28:45;;;;;;;;;;;;;;;3.06;98.03;99559.44;10204104;23;20224;-74
2022/12/06 03:32:48;;;;;;;;;;;;;;;3.02;97.84;99546.50;10204996;23;19951;-74
2022/12/06 03:36:50;;;;;;;;;;;;;;;2.99;97.56;99556.69;10191139;23;19986;-73
2022/12/06 03:40:54;;;;;;;;;;;;;;;2.97;97.88;99550.63;10206087;23;20280;-74
2022/12/06 03:44:55;;;;;;;;;;;;;;;2.98;97.85;99542.13;10229963;23;19928;-74
2022/12/06 03:49:03;;;;;;;;;;;;;;;2.98;97.92;99541.25;10204396;23;19971;-74
2022/12/06 03:53:04;;;;;;;;;;;;;;;2.92;97.86;99533.38;10230555;23;20027;-74
2022/12/06 03:57:06;;;;;;;;;;;;;;;2.91;98.15;99537.66;10229624;23;19928;-74
2022/12/06 04:01:08;;;;;;;;;;;;;;;2.91;97.84;99547.91;10204380;23;20015;-74
2022/12/06 04:05:09;;;;;;;;;;;;;;;2.91;98.06;99542.78;10227043;23;19971;-73
2022/12/06 04:13:31;;;;;;;;;;;;;;;2.89;98.50;99547.00;10198984;23;20355;-74
2022/12/06 04:26:14;;;;;;;;;;;;;;;2.83;97.72;99541.69;10198984;23;20002;-74
2022/12/06 04:38:55;;;;;;;;;;;;;;;2.77;97.80;99536.38;10226189;23;20010;-74
2022/12/06 04:47:17;;;;;;;;;;;;;;;2.73;97.86;99516.63;10224776;23;19924;-74
2022/12/06 04:51:19;;;;;;;;;;;;;;;2.73;97.90;99530.31;10175644;23;19924;-74
2022/12/06 04:55:20;;;;;;;;;;;;;;;2.77;98.01;99518.44;10198685;23;19924;-74
2022/12/06 04:59:21;;;;;;;;;;;;;;;2.75;97.77;99525.22;10199696;23;20944;-73
2022/12/06 05:03:22;;;;;;;;;;;;;;;2.71;97.39;99521.69;10175399;23;19924;-74
2022/12/06 05:07:24;;;;;;;;;;;;;;;2.68;97.93;99523.28;10174645;23;19924;-74
2022/12/06 05:11:26;;;;;;;;;;;;;;;2.67;98.07;99519.84;10198121;23;19960;-74
2022/12/06 05:15:28;;;;;;;;;;;;;;;2.67;97.90;99522.41;10197657;23;20490;-74
2022/12/06 05:19:30;;;;;;;;;;;;;;;2.69;97.99;99514.75;10199661;23;19935;-74
2022/12/06 05:23:32;;;;;;;;;;;;;;;2.70;98.67;99519.09;10173140;23;20600;-74
2022/12/06 05:27:33;;;;;;;;;;;;;;;2.67;98.04;99526.69;10198647;23;19955;-73
2022/12/06 05:31:36;;;;;;;;;;;;;;;2.66;98.44;99533.50;10225074;23;19963;-74
2022/12/06 05:35:38;;;;;;;;;;;;;;;2.64;98.28;99531.72;10197263;23;20023;-74
2022/12/06 05:39:39;;;;;;;;;;;;;;;2.66;98.47;99541.19;10199937;23;19959;-73
2022/12/06 05:43:40;;;;;;;;;;;;;;;2.68;98.90;99542.09;10224940;23;20028;-73
2022/12/06 05:47:42;;;;;;;;;;;;;;;2.68;98.98;99539.53;10225060;23;19955;-74
2022/12/06 05:51:43;;;;;;;;;;;;;;;2.70;98.64;99539.59;10199187;23;19951;-74
2022/12/06 05:55:45;;;;;;;;;;;;;;;2.68;98.39;99548.91;10224343;23;19924;-73
2022/12/06 05:59:46;;;;;;;;;;;;;;;2.73;98.83;99542.25;10200823;23;19929;-74
2022/12/06 06:03:48;;;;;;;;;;;;;;;2.75;98.46;99555.13;10201804;23;20003;-74
2022/12/06 06:07:49;;;;;;;;;;;;;;;2.70;98.13;99548.16;10201540;23;19971;-74
2022/12/06 06:11:50;;;;;;;;;;;;;;;2.72;98.54;99545.66;10229423;23;19924;-73
2022/12/06 06:15:52;;;;;;;;;;;;;;;2.75;98.64;99539.72;10202235;23;20477;-74
2022/12/06 06:19:53;;;;;;;;;;;;;;;2.77;98.60;99536.38;10228369;23;19928;-74
2022/12/06 06:23:55;;;;;;;;;;;;;;;2.77;98.44;99545.78;10200823;23;19924;-74
2022/12/06 06:27:57;;;;;;;;;;;;;;;2.76;98.80;99528.66;10227414;23;19959;-74
2022/12/06 06:31:58;;;;;;;;;;;;;;;2.78;98.79;99532.13;10228056;23;19920;-73
2022/12/06 06:36:00;;;;;;;;;;;;;;;2.77;98.67;99523.56;10226250;23;20007;-73
2022/12/06 06:40:01;;;;;;;;;;;;;;;2.81;99.08;99527.06;10203218;23;19960;-74
2022/12/06 06:44:03;;;;;;;;;;;;;;;2.83;99.27;99531.41;10225884;23;20366;-74
2022/12/06 06:48:05;;;;;;;;;;;;;;;2.85;98.95;99521.19;10226079;23;19999;-73
2022/12/06 06:52:06;;;;;;;;;;;;;;;2.83;98.65;99536.53;10188595;23;20531;-73
2022/12/06 06:56:07;;;;;;;;;;;;;;;2.84;98.85;99538.28;10201685;23;20292;-74
2022/12/06 07:00:11;;;;;;;;;;;;;;;2.88;98.83;99544.41;10188268;23;19924;-74
2022/12/06 07:04:13;;;;;;;;;;;;;;;2.88;99.04;99542.69;10231111;23;19924;-74
2022/12/06 07:08:14;;;;;;;;;;;;;;;2.83;98.83;99544.25;10229030;23;20304;-73
2022/12/06 07:12:16;;;;;;;;;;;;;;;2.86;99.00;99535.75;10230669;23;19924;-73
2022/12/06 07:16:17;;;;;;;;;;;;;;;2.88;98.97;99532.44;10229219;23;20883;-74
2022/12/06 07:20:19;;;;;;;;;;;;;;;2.88;99.12;99537.56;10213917;23;19920;-73
2022/12/06 07:24:20;;;;;;;;;;;;;;;2.90;98.87;99548.75;10207736;23;19964;-73
2022/12/06 07:28:21;;;;;;;;;;;;;;;2.90;98.79;99540.19;10215456;23;19920;-74
2022/12/06 07:32:23;;;;;;;;;;;;;;;2.91;98.85;99542.78;10274532;23;19905;-75
2022/12/06 07:36:25;;;;;;;;;;;;;;;2.92;99.14;99533.38;10251179;23;19920;-75
2022/12/06 07:40:26;;;;;;;;;;;;;;;2.88;98.44;99535.00;10278664;23;19920;-75
2022/12/06 07:45:00;;;;;;;;;;;;;;;2.87;98.70;99542.63;10276396;23;19928;-75
2022/12/06 07:49:05;;;;;;;;;;;;;;;2.87;98.75;99540.97;10224685;23;19978;-75
2022/12/06 07:53:07;;;;;;;;;;;;;;;2.91;98.83;99547.91;10223936;23;19979;-75
2022/12/06 07:57:14;;;;;;;;;;;;;;;2.92;98.70;99539.38;10201636;23;19924;-75
2022/12/06 08:01:17;;;;;;;;;;;;;;;2.94;98.64;99542.88;10197252;23;20230;-74
2022/12/06 08:05:23;;;;;;;;;;;;;;;2.99;98.62;99541.28;10224259;23;19924;-75
2022/12/06 08:09:29;;;;;;;;;;;;;;;3.02;98.11;99540.50;10200065;23;19983;-75
2022/12/06 08:13:36;;;;;;;;;;;;;;;3.04;98.57;99531.16;10224046;23;20018;-75
2022/12/06 08:17:39;;;;;;;;;;;;;;;3.06;98.21;99531.22;10197195;23;20263;-74
2022/12/06 08:21:41;;;;;;;;;;;;;;;3.13;98.23;99544.25;10222555;23;19924;-75
2022/12/06 08:25:43;;;;;;;;;;;;;;;3.16;98.17;99544.31;10221933;23;19924;-74
2022/12/06 08:29:49;;;;;;;;;;;;;;;3.19;97.81;99533.28;10223370;23;19928;-75
2022/12/06 08:33:55;;;;;;;;;;;;;;;3.22;97.83;99534.22;10195870;23;19935;-74
2022/12/06 08:37:58;;;;;;;;;;;;;;;3.26;97.95;99538.63;10220671;23;19936;-75
2022/12/06 08:42:05;;;;;;;;;;;;;;;3.28;97.66;99541.22;10184003;23;19963;-74
2022/12/06 08:46:09;;;;;;;;;;;;;;;3.30;97.83;99537.88;10171216;23;19935;-74
2022/12/06 08:50:11;;;;;;;;;;;;;;;3.36;97.16;99544.84;10195247;23;19932;-74
2022/12/06 08:54:15;;;;;;;;;;;;;;;3.41;97.18;99542.41;10195849;23;19924;-74
2022/12/06 08:58:22;;;;;;;;;;;;;;;3.38;96.17;99553.47;10221975;23;19932;-74
2022/12/06 09:02:39;;;;;;;;;;;;;;;3.37;95.80;99549.16;10221633;23;19924;-74
2022/12/06 09:06:44;;;;;;;;;;;;;;;3.44;95.92;99552.78;10220686;23;19928;-74
2022/12/06 09:10:46;;;;;;;;;;;;;;;3.49;95.43;99557.19;10196610;23;19924;-75
2022/12/06 09:14:52;;;;;;;;;;;;;;;3.56;95.48;99555.66;10171842;23;19932;-75
2022/12/06 09:18:54;;;;;;;;;;;;;;;3.60;95.20;99550.66;10195455;23;19924;-75
2022/12/06 09:23:20;;;;;;;;;;;;;;;3.65;94.64;99558.47;10174689;23;19924;-74
2022/12/06 09:27:23;;;;;;;;;;;;;;;3.67;94.26;99558.50;10222008;23;19978;-74
2022/12/06 09:31:26;;;;;;;;;;;;;;;3.73;94.43;99566.34;10220980;23;19990;-74
2022/12/06 09:35:28;;;;;;;;;;;;;;;3.74;94.28;99562.94;10145611;23;19966;-74
2022/12/06 09:39:32;;;;;;;;;;;;;;;3.75;93.90;99564.69;10146944;23;19959;-74
2022/12/06 09:43:57;;;;;;;;;;;;;;;3.80;93.84;99578.53;10170442;23;19947;-75
2022/12/06 09:48:17;;;;;;;;;;;;;;;3.77;93.73;99575.88;10175533;23;20003;-74
2022/12/06 09:52:39;;;;;;;;;;;;;;;3.82;93.85;99584.56;10145815;23;19925;-74
2022/12/06 09:56:44;;;;;;;;;;;;;;;3.81;93.73;99593.13;10170683;23;19935;-74
2022/12/06 10:01:01;;;;;;;;;;;;;;;3.79;93.40;99587.94;10144053;23;19932;-75
2022/12/06 10:05:23;;;;;;;;;;;;;;;3.86;93.56;99587.25;10120460;23;19932;-74
2022/12/06 10:09:35;;;;;;;;;;;;;;;3.90;93.64;99580.50;10146704;23;20239;-75
2022/12/06 10:13:53;;;;;;;;;;;;;;;3.93;93.16;99580.56;10145750;23;19983;-75
2022/12/06 10:18:35;;;;;;;;;;;;;;;3.90;92.97;99581.34;10171271;23;19935;-75
2022/12/06 10:22:58;;;;;;;;;;;;;;;3.94;92.43;99585.72;10040966;23;19928;-75
2022/12/06 10:27:07;;;;;;;;;;;;;;;3.99;92.83;99573.03;10169411;23;20003;-75
2022/12/06 10:31:23;;;;;;;;;;;;;;;4.06;92.64;99561.19;10141250;23;19925;-75
2022/12/06 10:35:43;;;;;;;;;;;;;;;4.11;92.22;99562.16;10143769;23;19980;-75
2022/12/06 10:40:07;;;;;;;;;;;;;;;4.20;92.39;99557.25;10121671;23;19936;-75
2022/12/06 10:44:13;;;;;;;;;;;;;;;4.30;92.39;99555.75;10147020;23;20283;-75
2022/12/06 10:48:31;;;;;;;;;;;;;;;4.32;91.90;99561.81;10148817;23;19925;-75
2022/12/06 10:52:42;;;;;;;;;;;;;;;4.35;91.77;99562.75;10149180;23;20410;-75
2022/12/06 10:56:47;;;;;;;;;;;;;;;4.38;91.29;99572.25;10165778;23;19932;-75
2022/12/06 11:00:58;;;;;;;;;;;;;;;4.38;91.39;99565.41;10145650;23;19924;-75
2022/12/06 11:05:05;;;;;;;;;;;;;;;4.37;91.17;99567.94;10149157;23;19959;-75
2022/12/06 11:09:19;;;;;;;;;;;;;;;4.40;91.37;99570.56;10174016;23;20395;-75
2022/12/06 11:13:46;;;;;;;;;;;;;;;4.41;91.11;99568.03;10144474;23;19995;-75
2022/12/06 11:17:56;;;;;;;;;;;;;;;4.45;91.59;99574.09;10147644;23;19984;-75
2022/12/06 11:22:39;;;;;;;;;;;;;;;4.44;91.21;99574.94;10149391;23;19924;-75
2022/12/06 11:26:41;;;;;;;;;;;;;;;4.43;91.00;99571.50;10175272;23;19928;-75
2022/12/06 11:30:43;;;;;;;;;;;;;;;4.45;90.98;99569.81;10172173;23;19925;-75
2022/12/06 11:34:53;;;;;;;;;;;;;;;4.45;90.63;99566.38;10145197;23;19924;-75
2022/12/06 11:38:56;;;;;;;;;;;;;;;4.46;90.67;99558.72;10147532;23;19966;-75
2022/12/06 11:43:01;;;;;;;;;;;;;;;4.45;90.94;99556.97;10148973;23;20344;-75
2022/12/06 11:47:04;;;;;;;;;;;;;;;4.50;90.73;99550.25;10148747;23;19920;-75
2022/12/06 11:51:22;;;;;;;;;;;;;;;4.53;90.95;99550.31;10149638;23;20004;-75
2022/12/06 11:55:26;;;;;;;;;;;;;;;4.52;90.25;99545.16;10122851;23;19924;-75
2022/12/06 11:59:47;;;;;;;;;;;;;;;4.51;90.25;99546.84;10117887;23;19924;-75
2022/12/06 12:03:51;;;;;;;;;;;;;;;4.52;90.27;99542.56;10174869;23;19928;-75
2022/12/06 12:07:57;;;;;;;;;;;;;;;4.54;90.16;99546.03;10147685;23;20473;-75
2022/12/06 12:12:04;;;;;;;;;;;;;;;4.60;90.64;99542.72;10148497;23;19936;-75
2022/12/06 12:16:12;;;;;;;;;;;;;;;4.63;90.52;99537.66;10147502;23;20186;-75
2022/12/06 12:20:43;;;;;;;;;;;;;;;4.66;90.54;99542.84;10123447;23;19931;-75
2022/12/06 12:24:44;;;;;;;;;;;;;;;4.70;90.43;99536.97;10134971;23;19960;-75
2022/12/06 12:29:12;;;;;;;;;;;;;;;4.71;90.09;99533.56;10123759;23;19940;-75
2022/12/06 12:33:15;;;;;;;;;;;;;;;4.74;90.19;99534.47;10147701;23;20689;-75
2022/12/06 12:37:20;;;;;;;;;;;;;;;4.75;89.45;99536.22;10099363;23;19925;-75
2022/12/06 12:41:25;;;;;;;;;;;;;;;4.75;89.59;99532.78;10095583;23;19933;-75
2022/12/06 12:45:26;;;;;;;;;;;;;;;4.78;89.94;99535.41;10122244;23;20636;-75
2022/12/06 12:49:30;;;;;;;;;;;;;;;4.77;89.44;99534.53;10066587;23;20538;-75
2022/12/06 12:53:35;;;;;;;;;;;;;;;4.81;89.62;99526.03;10098289;23;19967;-75
2022/12/06 12:57:38;;;;;;;;;;;;;;;4.82;89.80;99519.19;10074266;23;19925;-76
2022/12/06 13:01:45;;;;;;;;;;;;;;;4.83;89.63;99516.66;10098556;23;20044;-75
2022/12/06 13:05:56;;;;;;;;;;;;;;;4.88;nan;99510.75;10122933;23;19925;-75
2022/12/06 13:09:57;;;;;;;;;;;;;;;4.90;89.74;99516.78;10123310;23;19959;-75
2022/12/06 13:14:02;;;;;;;;;;;;;;;4.89;89.07;99518.50;10097279;23;20007;-75
2022/12/06 13:18:16;;;;;;;;;;;;;;;4.92;88.62;99515.97;10097783;23;19929;-75
2022/12/06 13:22:22;;;;;;;;;;;;;;;4.93;88.77;99519.41;10096714;23;20332;-75
2022/12/06 13:26:31;;;;;;;;;;;;;;;4.94;88.45;99519.44;10121988;23;19972;-75
2022/12/06 13:30:35;;;;;;;;;;;;;;;4.95;88.12;99508.31;10122976;23;20217;-75
2022/12/06 13:34:55;;;;;;;;;;;;;;;4.98;88.38;99502.34;10121191;23;19921;-75
2022/12/06 13:38:57;;;;;;;;;;;;;;;5.00;88.79;99498.97;10146604;23;19984;-75
2022/12/06 13:43:02;;;;;;;;;;;;;;;5.05;89.25;99499.09;10123203;23;19936;-75
2022/12/06 13:47:26;;;;;;;;;;;;;;;5.05;88.90;99496.50;10145073;23;20205;-75
2022/12/06 13:51:34;;;;;;;;;;;;;;;5.06;88.89;99500.81;10121498;23;19983;-75
2022/12/06 13:56:08;;;;;;;;;;;;;;;5.08;89.53;99501.72;10121284;23;19924;-76
2022/12/06 14:00:32;;;;;;;;;;;;;;;5.07;89.41;99495.69;10084606;23;19988;-75
2022/12/06 14:04:36;;;;;;;;;;;;;;;5.02;88.51;99502.44;10122407;23;20434;-75
2022/12/06 14:08:59;;;;;;;;;;;;;;;4.98;88.62;99499.78;10123112;23;20348;-75
2022/12/06 14:13:05;;;;;;;;;;;;;;;4.98;88.71;99502.34;10124017;23;19980;-75
2022/12/06 14:17:11;;;;;;;;;;;;;;;4.96;89.22;99502.34;10122952;23;20257;-75
2022/12/06 14:21:35;;;;;;;;;;;;;;;4.91;88.98;99503.09;10126021;23;19988;-75
2022/12/06 14:25:39;;;;;;;;;;;;;;;4.93;89.11;99509.13;10125935;23;19928;-76
2022/12/06 14:29:45;;;;;;;;;;;;;;;4.91;89.89;99505.66;10126449;23;19925;-75
2022/12/06 14:33:51;;;;;;;;;;;;;;;4.89;90.02;99499.63;10125008;23;20215;-76
2022/12/06 14:37:58;;;;;;;;;;;;;;;4.88;89.78;99503.03;10101180;23;19984;-75
2022/12/06 14:46:22;;;;;;;;;;;;;;;4.79;90.28;99503.69;10126896;23;19925;-76
2022/12/06 14:50:27;;;;;;;;;;;;;;;4.76;90.49;99503.63;10101720;23;19990;-75
2022/12/06 14:54:31;;;;;;;;;;;;;;;4.73;90.51;99491.59;10100813;23;19976;-76
2022/12/06 14:58:34;;;;;;;;;;;;;;;4.68;90.69;99495.78;10127080;23;19924;-75
2022/12/06 15:02:38;;;;;;;;;;;;;;;4.70;90.92;99500.97;10100974;23;19928;-75
2022/12/06 15:06:49;;;;;;;;;;;;;;;4.69;91.10;99497.53;10074938;23;20217;-75
2022/12/06 15:11:09;;;;;;;;;;;;;;;4.64;91.72;99499.09;10125377;23;19924;-75
2022/12/06 15:15:30;;;;;;;;;;;;;;;4.62;91.77;99497.34;10122513;23;20003;-76
2022/12/06 15:19:33;;;;;;;;;;;;;;;4.58;91.43;99500.69;10099879;23;19977;-76
2022/12/06 15:23:39;;;;;;;;;;;;;;;4.54;91.58;99492.06;10101272;23;19981;-75
2022/12/06 15:27:41;;;;;;;;;;;;;;;4.57;91.85;99488.66;10100199;23;19921;-75
2022/12/06 15:31:45;;;;;;;;;;;;;;;4.55;92.35;99489.50;10099344;23;19925;-75
2022/12/06 15:35:47;;;;;;;;;;;;;;;4.53;92.28;99485.16;10071981;23;20014;-75
2022/12/06 15:39:51;;;;;;;;;;;;;;;4.51;92.64;99487.72;10099160;23;20000;-75
2022/12/06 15:43:57;;;;;;;;;;;;;;;4.47;92.73;99487.59;10126325;23;19956;-75
2022/12/06 15:47:58;;;;;;;;;;;;;;;4.44;92.63;99484.97;10124866;23;19925;-75
2022/12/06 15:52:00;;;;;;;;;;;;;;;4.38;92.53;99480.56;10099798;23;19987;-75
2022/12/06 15:56:01;;;;;;;;;;;;;;;4.32;92.45;99483.00;10099612;23;19932;-75
2022/12/06 16:00:03;;;;;;;;;;;;;;;4.29;92.45;99487.19;10100008;23;20379;-76
2022/12/06 16:04:05;;;;;;;;;;;;;;;4.20;93.01;99486.16;10101295;23;19925;-75
2022/12/06 16:08:08;;;;;;;;;;;;;;;4.15;93.17;99489.47;10100630;23;20186;-75
2022/12/06 16:12:11;;;;;;;;;;;;;;;4.11;93.37;99483.38;10127158;23;19960;-75
2022/12/06 16:16:15;;;;;;;;;;;;;;;4.07;93.67;99485.84;10100189;23;19931;-75
2022/12/06 16:20:34;;;;;;;;;;;;;;;3.97;93.46;99500.19;10100182;23;19956;-76
2022/12/06 16:24:36;;;;;;;;;;;;;;;3.85;94.10;99495.63;10099426;23;20313;-75
2022/12/06 16:28:39;;;;;;;;;;;;;;;3.78;93.93;99491.19;10050018;23;19925;-76
2022/12/06 16:32:47;;;;;;;;;;;;;;;3.75;94.40;99497.94;10125063;23;19933;-76
2022/12/06 16:36:54;;;;;;;;;;;;;;;3.70;94.55;99500.38;10122536;23;19932;-75
2022/12/06 16:40:56;;;;;;;;;;;;;;;3.66;94.69;99501.16;10125976;23;19936;-75
2022/12/06 16:45:05;;;;;;;;;;;;;;;3.61;95.12;99498.47;10121496;23;19925;-75
2022/12/06 16:49:16;;;;;;;;;;;;;;;3.60;95.09;99499.31;10098972;23;19988;-75
2022/12/06 16:53:39;;;;;;;;;;;;;;;3.61;95.24;99507.88;10098588;23;19976;-75
2022/12/06 16:57:41;;;;;;;;;;;;;;;3.54;95.07;99503.41;10123387;23;20003;-75
2022/12/06 17:01:53;;;;;;;;;;;;;;;3.55;95.49;99513.69;10075399;23;19924;-75
2022/12/06 17:05:54;;;;;;;;;;;;;;;3.55;95.67;99511.13;10122043;23;20003;-75
2022/12/06 17:09:58;;;;;;;;;;;;;;;3.49;95.85;99505.84;10123666;23;20032;-75
2022/12/06 17:14:00;;;;;;;;;;;;;;;3.46;96.08;99510.06;10122210;23;19971;-75
2022/12/06 17:18:01;;;;;;;;;;;;;;;3.37;96.00;99508.09;10097662;23;20585;-75
2022/12/06 17:22:06;;;;;;;;;;;;;;;3.39;96.42;99515.84;10097953;23;20051;-75
2022/12/06 17:26:22;;;;;;;;;;;;;;;3.39;96.74;99503.00;10123253;23;20004;-75
2022/12/06 17:30:25;;;;;;;;;;;;;;;3.40;96.77;99508.16;10123163;23;19960;-75
2022/12/06 17:34:54;;;;;;;;;;;;;;;3.39;96.86;99509.00;10120981;23;20347;-75
2022/12/06 17:39:00;;;;;;;;;;;;;;;3.37;97.04;99510.66;10121674;23;20007;-75
2022/12/06 17:43:08;;;;;;;;;;;;;;;3.37;97.27;99510.66;10096803;23;19976;-75
2022/12/06 17:47:16;;;;;;;;;;;;;;;3.34;97.24;99511.47;10122673;23;19928;-76
2022/12/06 17:51:17;;;;;;;;;;;;;;;3.31;97.42;99507.94;10119836;23;20016;-75
2022/12/06 17:55:18;;;;;;;;;;;;;;;3.32;97.46;99504.56;10122816;23;19952;-75
2022/12/06 17:59:26;;;;;;;;;;;;;;;3.37;97.59;99515.78;10145390;23;19952;-75
2022/12/06 18:03:30;;;;;;;;;;;;;;;3.39;97.33;99506.44;10097246;23;19929;-75
2022/12/06 18:07:35;;;;;;;;;;;;;;;3.37;97.68;99518.38;10122302;23;19924;-75
2022/12/06 18:11:36;;;;;;;;;;;;;;;3.37;97.46;99514.94;10121262;23;19924;-75
2022/12/06 18:15:39;;;;;;;;;;;;;;;3.36;97.77;99526.88;10123528;23;19932;-75
2022/12/06 18:19:42;;;;;;;;;;;;;;;3.36;97.78;99526.03;10097810;23;19943;-75
2022/12/06 18:23:44;;;;;;;;;;;;;;;3.36;97.68;99519.19;10120886;23;19925;-75
2022/12/06 18:28:06;;;;;;;;;;;;;;;3.36;98.41;99536.28;10137733;23;20258;-75
2022/12/06 18:32:07;;;;;;;;;;;;;;;3.40;98.43;99527.84;10121860;23;20000;-75
2022/12/06 18:36:10;;;;;;;;;;;;;;;3.38;98.30;99532.06;10120199;23;19928;-75
2022/12/06 18:40:14;;;;;;;;;;;;;;;3.39;98.41;99529.53;10122261;23;19956;-75
2022/12/06 18:44:20;;;;;;;;;;;;;;;3.36;98.28;99534.59;10121262;23;19925;-75
2022/12/06 18:48:25;;;;;;;;;;;;;;;3.39;98.54;99533.78;10121982;23;19988;-75
2022/12/06 18:52:28;;;;;;;;;;;;;;;3.36;98.40;99529.47;10123354;23;19936;-76
2022/12/06 18:56:31;;;;;;;;;;;;;;;3.41;98.67;99530.47;10122840;23;19960;-75
2022/12/06 19:00:39;;;;;;;;;;;;;;;3.43;98.74;99544.22;10122712;23;20381;-75
2022/12/06 19:04:41;;;;;;;;;;;;;;;3.45;98.75;99529.72;10094635;23;19928;-76
2022/12/06 19:08:45;;;;;;;;;;;;;;;3.45;98.80;99539.13;10125614;23;19987;-75
2022/12/06 19:12:48;;;;;;;;;;;;;;;3.46;98.72;99531.44;10121291;23;19980;-75
2022/12/06 19:16:51;;;;;;;;;;;;;;;3.45;98.75;99529.72;10122616;23;20553;-75
2022/12/06 19:20:59;;;;;;;;;;;;;;;3.43;98.51;99533.94;10123362;23;19925;-75
2022/12/06 19:25:03;;;;;;;;;;;;;;;3.45;98.73;99527.16;10123585;23;20015;-75
2022/12/06 19:29:04;;;;;;;;;;;;;;;3.44;98.58;99532.25;10125241;23;19983;-75
2022/12/06 19:33:08;;;;;;;;;;;;;;;3.41;98.68;99529.56;10124029;23;19972;-75
2022/12/06 19:37:11;;;;;;;;;;;;;;;3.42;98.85;99531.34;10123599;23;20210;-75
2022/12/06 19:41:15;;;;;;;;;;;;;;;3.38;98.67;99530.38;10098215;23;20205;-75
2022/12/06 19:45:17;;;;;;;;;;;;;;;3.37;98.98;99525.19;10122022;23;19984;-75
2022/12/06 19:49:19;;;;;;;;;;;;;;;3.39;98.96;99526.97;10123691;23;20496;-75
2022/12/06 19:53:23;;;;;;;;;;;;;;;3.37;99.04;99526.06;10098711;23;19932;-75
2022/12/06 19:57:25;;;;;;;;;;;;;;;3.33;99.09;99530.25;10123974;23;20012;-75
2022/12/06 20:01:30;;;;;;;;;;;;;;;3.36;99.19;99526.03;10097379;23;20192;-75
2022/12/06 20:05:35;;;;;;;;;;;;;;;3.34;99.33;99526.00;10123812;23;19931;-75
2022/12/06 20:09:38;;;;;;;;;;;;;;;3.37;98.85;99531.19;10073948;23;19924;-75
2022/12/06 20:13:39;;;;;;;;;;;;;;;3.37;99.04;99535.47;10124404;23;20031;-74
2022/12/06 20:17:42;;;;;;;;;;;;;;;3.39;99.12;99544.06;10099141;23;19929;-75
2022/12/06 20:21:44;;;;;;;;;;;;;;;3.41;99.11;99539.84;10123835;23;19925;-75
2022/12/06 20:25:47;;;;;;;;;;;;;;;3.38;99.07;99540.63;10124432;23;19976;-75
2022/12/06 20:29:50;;;;;;;;;;;;;;;3.36;99.42;99544.84;10074965;23;19992;-75
2022/12/06 20:33:54;;;;;;;;;;;;;;;3.36;99.42;99537.16;10108026;23;19925;-74
2022/12/06 20:37:56;;;;;;;;;;;;;;;3.37;99.48;99541.47;10172808;23;20468;-74
2022/12/06 20:41:58;;;;;;;;;;;;;;;3.39;99.71;99539.81;10173054;23;19935;-75
2022/12/06 20:46:06;;;;;;;;;;;;;;;3.37;99.31;99548.28;10145129;23;20519;-75
2022/12/06 20:50:16;;;;;;;;;;;;;;;3.34;99.32;99546.50;10172796;23;20012;-75
2022/12/06 20:54:18;;;;;;;;;;;;;;;3.32;99.45;99543.03;10147367;23;19983;-75
2022/12/06 20:58:22;;;;;;;;;;;;;;;3.30;99.72;99547.28;10118933;23;19998;-75
2022/12/06 21:02:25;;;;;;;;;;;;;;;3.28;99.45;99543.78;10147062;23;20007;-75
2022/12/06 21:06:27;;;;;;;;;;;;;;;3.27;99.55;99542.06;10146339;23;20007;-75
2022/12/06 21:10:30;;;;;;;;;;;;;;;3.24;99.53;99544.56;10146746;23;19936;-75
2022/12/06 21:14:31;;;;;;;;;;;;;;;3.24;99.74;99540.28;10173157;23;20205;-75
2022/12/06 21:18:34;;;;;;;;;;;;;;;3.24;99.57;99541.97;10170107;23;19967;-75
2022/12/06 21:22:36;;;;;;;;;;;;;;;3.23;99.75;99540.22;10143546;23;19987;-75
2022/12/06 21:26:39;;;;;;;;;;;;;;;3.19;99.23;99539.28;10170837;23;20625;-75
2022/12/06 21:30:41;;;;;;;;;;;;;;;3.11;98.96;99539.91;10119736;23;20489;-75
2022/12/06 21:34:43;;;;;;;;;;;;;;;3.03;98.99;99535.41;10145389;23;19925;-76
2022/12/06 21:38:47;;;;;;;;;;;;;;;2.97;99.14;99532.69;10146797;23;19936;-75
2022/12/06 21:42:48;;;;;;;;;;;;;;;2.93;99.04;99538.56;10146306;23;19924;-75
2022/12/06 21:46:51;;;;;;;;;;;;;;;2.92;99.74;99547.09;10120440;23;19983;-74
2022/12/06 21:50:58;;;;;;;;;;;;;;;2.93;99.50;99542.81;10120790;23;19999;-74